Haskins, Ohio
Current Conditions -  °F | °C
As of 11:52 AM on Friday 24 Oct 2014 (Local Time) from KTOL Reporting Station
Overcast Overcast  
Wind Chill: 56°   Ceiling: 5000
Heat Index: 56°   Visibility: 10mi
Dew Point: 42°   Wind: 9mph
Humidity: 60%   Direction: 240°WSW
Pressure: 30.09"   Gusts: NA
Location:  41.46°N, 83.71°W
Report Text: KTOL 241552Z 24008KT 10SM OVC050 13/06 A3009 RMK AO2 SLP191 T01330056
Loading
Personal Weather Stations






























Interactive Weather Map
Tropical Storm Tracking
New forecast layout! Learn more

10-Day Weather Forecast

Advertisements
Track Severe Weather on mobile